createdAt,value
2023-01-13T00:00:42.075Z,0.30
2023-01-13T00:03:46.379Z,0.43
2023-01-13T00:06:49.291Z,0.40
2023-01-13T00:09:52.194Z,0.43
2023-01-13T00:12:54.911Z,0.30
2023-01-13T00:15:58.823Z,0.23
2023-01-13T00:19:04.391Z,0.30
2023-01-13T00:22:07.475Z,0.37
2023-01-13T00:25:13.122Z,0.67
2023-01-13T00:28:15.887Z,0.40
2023-01-13T00:31:20.724Z,0.50
2023-01-13T00:34:25.739Z,0.47
2023-01-13T00:37:28.661Z,0.30
2023-01-13T00:40:31.389Z,0.23
2023-01-13T00:43:35.251Z,0.20
2023-01-13T00:46:38.265Z,0.27
2023-01-13T00:49:42.460Z,0.30
2023-01-13T00:52:45.264Z,0.20
2023-01-13T00:55:48.048Z,0.40
2023-01-13T00:58:51.919Z,0.30
2023-01-13T01:01:54.739Z,0.30
2023-01-13T01:04:59.992Z,0.30
2023-01-13T01:08:03.101Z,0.30
2023-01-13T01:11:07.909Z,0.20
2023-01-13T01:14:13.019Z,0.30
2023-01-13T01:17:15.957Z,0.37
2023-01-13T01:20:20.361Z,0.40
2023-01-13T01:23:23.122Z,0.20
2023-01-13T01:26:27.985Z,0.40
2023-01-13T01:29:30.970Z,0.50
2023-01-13T01:32:35.057Z,0.40
2023-01-13T01:35:41.555Z,0.30
2023-01-13T01:38:45.148Z,0.30
2023-01-13T01:42:01.777Z,0.40
2023-01-13T01:45:15.034Z,0.43
2023-01-13T01:48:18.036Z,0.57
2023-01-13T01:51:22.837Z,0.40
2023-01-13T01:54:31.083Z,0.50
2023-01-13T01:57:41.553Z,0.30
2023-01-13T02:00:44.841Z,0.30
2023-01-13T02:03:55.278Z,0.10
2023-01-13T02:06:59.886Z,0.20
2023-01-13T02:10:05.474Z,0.30
2023-01-13T02:13:11.600Z,0.40
2023-01-13T02:16:24.357Z,0.40
2023-01-13T02:20:01.161Z,0.40
2023-01-13T02:23:51.536Z,0.40
2023-01-13T02:27:28.379Z,0.30
2023-01-13T02:31:00.798Z,0.20
2023-01-13T02:34:11.101Z,0.20
2023-01-13T02:37:20.126Z,0.40
2023-01-13T02:40:26.915Z,0.47
2023-01-13T02:43:54.029Z,0.70
2023-01-13T02:47:03.106Z,0.30
2023-01-13T02:50:11.710Z,0.77
2023-01-13T02:53:20.378Z,0.20
2023-01-13T02:56:25.863Z,0.30
2023-01-13T02:59:30.850Z,0.30
2023-01-13T03:02:35.886Z,0.37
2023-01-13T03:05:40.236Z,0.43
2023-01-13T03:08:47.731Z,0.30
2023-01-13T03:12:00.739Z,0.30
2023-01-13T03:15:11.960Z,0.40
2023-01-13T03:18:25.030Z,0.30
2023-01-13T03:21:34.447Z,0.37
2023-01-13T03:24:41.521Z,0.20
2023-01-13T03:27:49.804Z,0.30
2023-01-13T03:30:58.814Z,0.30
2023-01-13T03:34:08.800Z,0.50
2023-01-13T03:37:15.259Z,0.50
2023-01-13T03:40:23.472Z,0.23
2023-01-13T03:43:47.705Z,0.30
2023-01-13T03:46:58.840Z,0.67
2023-01-13T03:50:06.900Z,0.20
2023-01-13T03:53:14.351Z,0.70
2023-01-13T03:56:22.352Z,0.50
2023-01-13T03:59:31.783Z,0.10
2023-01-13T04:02:43.665Z,0.57
2023-01-13T04:05:56.491Z,0.40
2023-01-13T04:09:08.519Z,0.40
2023-01-13T04:12:15.957Z,0.23
2023-01-13T04:15:19.802Z,0.30
2023-01-13T04:18:25.203Z,0.30
2023-01-13T04:21:31.224Z,0.50
2023-01-13T04:24:34.397Z,0.70
2023-01-13T04:27:37.269Z,0.20
2023-01-13T04:30:40.757Z,0.27
2023-01-13T04:33:43.590Z,0.50
2023-01-13T04:36:47.813Z,0.13
2023-01-13T04:39:50.802Z,0.40
2023-01-13T04:42:53.678Z,0.10
2023-01-13T04:45:56.566Z,0.30
2023-01-13T04:48:59.447Z,0.27
2023-01-13T04:52:03.976Z,0.27
2023-01-13T04:55:08.187Z,0.30
2023-01-13T04:58:12.302Z,0.43
2023-01-13T05:01:15.270Z,0.30
2023-01-13T05:04:18.528Z,0.17
2023-01-13T05:07:22.656Z,0.20
2023-01-13T05:10:25.957Z,0.40
2023-01-13T05:13:46.182Z,0.30
2023-01-13T05:17:01.251Z,0.10
2023-01-13T05:20:05.007Z,0.20
2023-01-13T05:23:38.444Z,0.20
2023-01-13T05:26:41.776Z,0.23
2023-01-13T05:29:44.725Z,0.30
2023-01-13T05:32:47.829Z,0.20
2023-01-13T05:35:50.698Z,0.30
2023-01-13T05:38:54.785Z,0.27
2023-01-13T05:42:15.375Z,0.30
2023-01-13T05:45:18.372Z,0.20
2023-01-13T05:48:22.802Z,0.37
2023-01-13T05:51:26.495Z,0.20
2023-01-13T05:54:30.685Z,0.50
2023-01-13T05:57:33.648Z,0.20
2023-01-13T06:00:37.057Z,0.30
2023-01-13T06:03:39.785Z,0.10
2023-01-13T06:06:43.498Z,0.20
2023-01-13T06:09:47.782Z,0.20
2023-01-13T06:12:50.601Z,0.20
2023-01-13T06:15:57.591Z,0.30
2023-01-13T06:19:00.649Z,0.20
2023-01-13T06:22:13.643Z,0.30
2023-01-13T06:25:25.732Z,0.30
2023-01-13T06:28:28.672Z,0.20
2023-01-13T06:31:31.962Z,0.10
2023-01-13T06:34:36.431Z,0.33
2023-01-13T06:37:39.948Z,0.10
2023-01-13T06:40:44.978Z,0.20
2023-01-13T06:43:48.360Z,0.20
2023-01-13T06:46:52.694Z,0.43
2023-01-13T06:49:55.771Z,0.13
2023-01-13T06:52:58.488Z,0.20
2023-01-13T06:56:02.820Z,0.20
2023-01-13T06:59:05.691Z,0.07
2023-01-13T07:02:08.537Z,0.17
2023-01-13T07:05:11.496Z,0.20
2023-01-13T07:08:14.476Z,0.10
2023-01-13T07:11:18.930Z,0.10
2023-01-13T07:14:39.459Z,0.07
2023-01-13T07:17:42.213Z,0.20
2023-01-13T07:20:45.337Z,0.10
2023-01-13T07:23:49.588Z,0.17
2023-01-13T07:26:54.239Z,0.20
2023-01-13T07:29:56.978Z,0.23
2023-01-13T07:33:02.380Z,0.40
2023-01-13T07:36:06.920Z,0.20
2023-01-13T07:39:09.751Z,0.30
2023-01-13T07:42:31.407Z,0.57
2023-01-13T07:45:34.496Z,0.20
2023-01-13T07:48:37.859Z,0.10
2023-01-13T07:51:41.007Z,0.20
2023-01-13T07:54:43.758Z,0.20
2023-01-13T07:57:49.535Z,0.10
2023-01-13T08:00:53.342Z,0.10
2023-01-13T08:03:58.485Z,0.47
2023-01-13T08:07:01.452Z,0.20
2023-01-13T08:10:04.824Z,0.20
2023-01-13T08:13:21.182Z,0.20
2023-01-13T08:16:24.989Z,0.10
2023-01-13T08:19:27.915Z,0.13
2023-01-13T08:22:31.053Z,0.00
2023-01-13T08:25:33.948Z,0.10
2023-01-13T08:28:41.548Z,0.17
2023-01-13T08:31:44.603Z,0.07
2023-01-13T08:34:47.527Z,0.30
2023-01-13T08:37:51.347Z,0.30
2023-01-13T08:40:54.327Z,0.20
2023-01-13T08:43:58.607Z,0.10
2023-01-13T08:47:02.191Z,0.20
2023-01-13T08:50:06.371Z,0.27
2023-01-13T08:53:09.209Z,0.30
2023-01-13T08:56:13.225Z,0.30
2023-01-13T08:59:18.984Z,0.30
2023-01-13T09:02:23.910Z,0.10
2023-01-13T09:05:26.937Z,0.10
2023-01-13T09:08:29.913Z,0.30
2023-01-13T09:11:53.366Z,0.10
2023-01-13T09:14:58.723Z,0.20
2023-01-13T09:18:02.796Z,0.13
2023-01-13T09:21:06.029Z,0.13
2023-01-13T09:24:09.454Z,0.20
2023-01-13T09:27:13.199Z,0.10
2023-01-13T09:30:17.817Z,0.17
2023-01-13T09:33:38.366Z,0.20
2023-01-13T09:36:41.452Z,0.10
2023-01-13T09:39:44.339Z,0.57
2023-01-13T09:43:10.747Z,0.30
2023-01-13T09:46:33.295Z,0.30
2023-01-13T09:49:39.544Z,0.50
2023-01-13T09:52:43.801Z,0.17
2023-01-13T09:55:46.895Z,0.30
2023-01-13T09:58:50.389Z,0.10
2023-01-13T10:02:01.085Z,0.30
2023-01-13T10:05:13.379Z,0.27
2023-01-13T10:08:23.832Z,0.20
2023-01-13T10:11:49.318Z,0.33
2023-01-13T10:14:55.553Z,0.13
2023-01-13T10:18:08.428Z,0.33
2023-01-13T10:21:32.105Z,0.20
2023-01-13T10:24:52.395Z,0.30
2023-01-13T10:27:57.447Z,0.30
2023-01-13T10:31:01.595Z,0.20
2023-01-13T10:34:05.948Z,0.27
2023-01-13T10:37:22.122Z,0.30
2023-01-13T10:40:25.696Z,0.40
2023-01-13T10:43:30.141Z,0.40
2023-01-13T10:46:35.144Z,0.53
2023-01-13T10:49:39.723Z,0.50
2023-01-13T10:52:58.142Z,0.30
2023-01-13T10:56:02.634Z,0.50
2023-01-13T10:59:23.389Z,0.23
2023-01-13T11:02:29.636Z,0.30
2023-01-13T11:05:34.102Z,0.20
2023-01-13T11:08:45.346Z,0.30
2023-01-13T11:11:50.799Z,0.23
2023-01-13T11:14:54.271Z,0.10
2023-01-13T11:18:02.309Z,0.40
2023-01-13T11:21:13.319Z,0.20
2023-01-13T11:24:22.888Z,0.90
2023-01-13T11:27:39.676Z,0.33
2023-01-13T11:30:50.935Z,0.37
2023-01-13T11:33:58.159Z,0.53
2023-01-13T11:37:08.418Z,0.30
2023-01-13T11:40:17.586Z,0.33
2023-01-13T11:43:29.843Z,0.50
2023-01-13T11:46:33.119Z,0.43
2023-01-13T11:49:37.661Z,0.40
2023-01-13T11:53:03.603Z,3.23
2023-01-13T11:56:20.069Z,0.73
2023-01-13T11:59:54.631Z,0.70
2023-01-13T12:03:18.086Z,1.30
2023-01-13T12:06:32.019Z,0.60
2023-01-13T12:09:48.781Z,0.30
2023-01-13T12:13:00.105Z,0.65
2023-01-13T12:16:16.901Z,0.52
2023-01-13T12:19:27.924Z,0.40
2023-01-13T12:22:35.983Z,0.63
2023-01-13T12:25:45.284Z,0.40
2023-01-13T12:28:53.004Z,0.50
2023-01-13T12:31:59.186Z,0.40
2023-01-13T12:35:20.984Z,0.45
2023-01-13T12:38:34.584Z,0.30
2023-01-13T12:41:59.597Z,0.47
2023-01-13T12:45:25.363Z,0.60
2023-01-13T12:49:05.168Z,0.40
2023-01-13T12:52:15.453Z,0.45
2023-01-13T12:55:21.479Z,0.95
2023-01-13T12:58:29.844Z,1.02
2023-01-13T13:01:37.002Z,0.60
2023-01-13T13:04:44.944Z,0.80
2023-01-13T13:07:50.574Z,0.60
2023-01-13T13:11:02.960Z,0.95
2023-01-13T13:14:08.640Z,0.70
2023-01-13T13:17:45.912Z,0.80
2023-01-13T13:21:04.707Z,0.98
2023-01-13T13:24:12.119Z,0.52
2023-01-13T13:27:19.243Z,0.73
2023-01-13T13:30:29.146Z,0.63
2023-01-13T13:33:51.001Z,0.73
2023-01-13T13:37:16.304Z,0.63
2023-01-13T13:40:36.993Z,0.90
2023-01-13T13:43:59.977Z,0.57
2023-01-13T13:47:06.484Z,0.60
2023-01-13T13:50:13.835Z,0.73
2023-01-13T13:53:19.583Z,0.77
2023-01-13T13:56:26.965Z,0.50
2023-01-13T13:59:30.992Z,0.38
2023-01-13T14:02:38.734Z,0.50
2023-01-13T14:05:55.101Z,0.60
2023-01-13T14:08:57.831Z,0.90
2023-01-13T14:12:02.661Z,0.45
2023-01-13T14:15:06.572Z,0.30
2023-01-13T14:18:16.765Z,0.60
2023-01-13T14:21:21.569Z,0.27
2023-01-13T14:24:25.539Z,0.43
2023-01-13T14:27:29.961Z,0.37
2023-01-13T14:30:34.413Z,0.60
2023-01-13T14:33:42.681Z,1.07
2023-01-13T14:36:47.904Z,0.60
2023-01-13T14:39:50.830Z,0.60
2023-01-13T14:43:04.856Z,0.50
2023-01-13T14:46:07.941Z,0.90
2023-01-13T14:49:24.865Z,0.80
2023-01-13T14:52:29.597Z,0.53
2023-01-13T14:55:34.403Z,0.73
2023-01-13T14:58:37.672Z,0.67
2023-01-13T15:01:40.836Z,2.93
2023-01-13T15:04:45.260Z,0.63
2023-01-13T15:07:51.395Z,0.93
2023-01-13T15:11:00.005Z,0.30
2023-01-13T15:14:03.883Z,0.50
2023-01-13T15:17:19.473Z,1.27
2023-01-13T15:20:25.775Z,0.43
2023-01-13T15:23:28.950Z,0.50
2023-01-13T15:26:34.926Z,0.30
2023-01-13T15:29:38.035Z,0.30
2023-01-13T15:32:40.762Z,0.40
2023-01-13T15:35:47.609Z,0.20
2023-01-13T15:38:50.980Z,0.33
2023-01-13T15:42:07.684Z,0.27
2023-01-13T15:45:30.994Z,0.30
2023-01-13T15:48:34.188Z,0.47
2023-01-13T15:51:40.937Z,0.60
2023-01-13T15:54:44.018Z,0.80
2023-01-13T15:57:50.748Z,0.90
2023-01-13T16:00:53.957Z,0.60
2023-01-13T16:03:56.913Z,0.50
2023-01-13T16:07:01.389Z,0.47
2023-01-13T16:10:04.976Z,0.63
2023-01-13T16:13:07.978Z,0.80
2023-01-13T16:16:19.910Z,0.90
2023-01-13T16:19:23.505Z,0.80
2023-01-13T16:22:27.666Z,1.10
2023-01-13T16:25:30.675Z,0.80
2023-01-13T16:28:35.756Z,0.50
2023-01-13T16:31:38.657Z,1.10
2023-01-13T16:34:41.853Z,0.63
2023-01-13T16:37:47.329Z,0.90
2023-01-13T16:40:52.269Z,1.10
2023-01-13T16:43:55.361Z,0.70
2023-01-13T16:46:58.099Z,0.97
2023-01-13T16:50:01.021Z,0.90
2023-01-13T16:53:05.846Z,1.20
2023-01-13T16:56:20.865Z,0.90
2023-01-13T16:59:23.852Z,1.00
2023-01-13T17:02:26.838Z,1.10
2023-01-13T17:05:30.350Z,1.40
2023-01-13T17:08:34.543Z,1.60
2023-01-13T17:11:37.423Z,1.30
2023-01-13T17:14:41.171Z,1.53
2023-01-13T17:17:47.126Z,1.87
2023-01-13T17:20:49.845Z,1.30
2023-01-13T17:23:54.513Z,1.50
2023-01-13T17:26:57.940Z,0.90
2023-01-13T17:30:02.929Z,1.17
2023-01-13T17:33:07.183Z,0.83
2023-01-13T17:36:10.032Z,1.00
2023-01-13T17:39:18.372Z,0.80
2023-01-13T17:42:21.205Z,1.10
2023-01-13T17:45:24.259Z,1.13
2023-01-13T17:48:27.555Z,0.97
2023-01-13T17:51:30.531Z,1.10
2023-01-13T17:54:34.973Z,1.23
2023-01-13T17:57:37.730Z,1.40
2023-01-13T18:00:40.649Z,0.90
2023-01-13T18:03:44.033Z,0.90
2023-01-13T18:06:48.528Z,0.97
2023-01-13T18:09:52.901Z,1.00
2023-01-13T18:12:56.206Z,0.80
2023-01-13T18:16:04.167Z,1.73
2023-01-13T18:19:24.649Z,1.13
2023-01-13T18:22:45.133Z,1.03
2023-01-13T18:26:06.716Z,0.80
2023-01-13T18:29:09.696Z,1.00
2023-01-13T18:32:12.973Z,1.17
2023-01-13T18:35:15.824Z,0.90
2023-01-13T18:38:19.960Z,0.60
2023-01-13T18:41:41.532Z,0.93
2023-01-13T18:44:44.331Z,0.70
2023-01-13T18:47:47.164Z,1.00
2023-01-13T18:50:50.694Z,0.80
2023-01-13T18:53:53.941Z,0.97
2023-01-13T18:56:58.231Z,0.97
2023-01-13T19:00:00.972Z,3.60
2023-01-13T19:06:16.149Z,1.80
2023-01-13T19:09:20.175Z,1.30
2023-01-13T19:12:27.561Z,1.13
2023-01-13T19:15:30.856Z,1.00
2023-01-13T19:18:37.698Z,0.80
2023-01-13T19:21:40.565Z,0.60
2023-01-13T19:24:43.322Z,0.80
2023-01-13T19:27:47.505Z,0.80
2023-01-13T19:30:52.244Z,0.83
2023-01-13T19:33:55.239Z,0.67
2023-01-13T19:36:58.096Z,0.70
2023-01-13T19:40:01.379Z,0.30
2023-01-13T19:43:23.540Z,0.60
2023-01-13T19:46:27.890Z,0.70
2023-01-13T19:49:30.690Z,0.83
2023-01-13T19:52:33.605Z,0.60
2023-01-13T19:55:36.320Z,1.03
2023-01-13T19:58:42.030Z,0.70
2023-01-13T20:01:44.975Z,0.83
2023-01-13T20:04:48.952Z,1.10
2023-01-13T20:07:52.394Z,0.97
2023-01-13T20:11:15.112Z,1.10
2023-01-13T20:14:19.729Z,1.00
2023-01-13T20:17:23.392Z,0.90
2023-01-13T20:20:27.369Z,0.93
2023-01-13T20:23:30.285Z,0.87
2023-01-13T20:26:33.129Z,0.80
2023-01-13T20:29:39.686Z,1.00
2023-01-13T20:32:42.749Z,0.93
2023-01-13T20:35:45.890Z,1.10
2023-01-13T20:38:48.894Z,0.90
2023-01-13T20:42:09.135Z,0.83
2023-01-13T20:45:18.512Z,0.90
2023-01-13T20:48:21.588Z,0.90
2023-01-13T20:51:24.458Z,1.40
2023-01-13T20:54:27.660Z,1.40
2023-01-13T20:57:30.443Z,1.07
2023-01-13T21:00:34.722Z,1.30
2023-01-13T21:03:38.053Z,1.10
2023-01-13T21:06:41.589Z,1.27
2023-01-13T21:09:44.917Z,1.20
2023-01-13T21:13:07.565Z,1.33
2023-01-13T21:16:12.112Z,1.40
2023-01-13T21:19:15.056Z,1.13
2023-01-13T21:22:17.866Z,0.90
2023-01-13T21:25:20.989Z,1.10
2023-01-13T21:28:23.825Z,0.73
2023-01-13T21:31:29.914Z,1.10
2023-01-13T21:34:35.418Z,0.70
2023-01-13T21:37:38.435Z,1.10
2023-01-13T21:40:41.234Z,1.20
2023-01-13T21:44:01.560Z,0.43
2023-01-13T21:47:23.721Z,1.00
2023-01-13T21:50:29.200Z,1.00
2023-01-13T21:53:32.025Z,0.83
2023-01-13T21:56:34.775Z,0.60
2023-01-13T21:59:37.792Z,0.63
2023-01-13T22:02:42.110Z,1.10
2023-01-13T22:05:46.355Z,1.00
2023-01-13T22:08:52.670Z,0.80
2023-01-13T22:11:55.462Z,0.83
2023-01-13T22:15:01.242Z,0.83
2023-01-13T22:18:05.692Z,0.53
2023-01-13T22:21:08.649Z,0.80
2023-01-13T22:24:11.825Z,0.57
2023-01-13T22:27:18.276Z,0.67
2023-01-13T22:30:22.192Z,0.43
2023-01-13T22:33:26.539Z,0.50
2023-01-13T22:36:29.238Z,0.60
2023-01-13T22:39:32.337Z,0.53
2023-01-13T22:42:38.268Z,0.97
2023-01-13T22:45:43.981Z,1.60
2023-01-13T22:48:48.731Z,0.60
2023-01-13T22:51:51.967Z,0.60
2023-01-13T22:54:54.919Z,0.50
2023-01-13T22:57:57.695Z,0.70
2023-01-13T23:01:09.177Z,0.77
2023-01-13T23:04:17.153Z,0.40
2023-01-13T23:07:20.007Z,0.60
2023-01-13T23:10:23.263Z,0.80
2023-01-13T23:13:27.418Z,0.70
2023-01-13T23:16:36.652Z,1.00
2023-01-13T23:19:43.843Z,0.80
2023-01-13T23:22:47.137Z,1.07
2023-01-13T23:25:50.951Z,0.70
2023-01-13T23:28:54.373Z,1.00
2023-01-13T23:32:02.400Z,0.93
2023-01-13T23:35:08.552Z,1.30
2023-01-13T23:38:11.536Z,0.50
2023-01-13T23:41:16.888Z,0.47
2023-01-13T23:44:19.764Z,0.47
2023-01-13T23:47:22.612Z,0.70
2023-01-13T23:50:26.854Z,0.57
2023-01-13T23:53:35.265Z,0.80
2023-01-13T23:56:39.684Z,1.20
2023-01-13T23:59:42.799Z,0.67
